createdAt,value
2019-03-24T00:04:33.477Z,101012.86
2019-03-24T00:07:03.443Z,101006.03
2019-03-24T00:09:33.363Z,101004.66
2019-03-24T00:12:03.382Z,101004.62
2019-03-24T00:14:33.294Z,101002.98
2019-03-24T00:17:03.204Z,100991.73
2019-03-24T00:19:33.332Z,100991.52
2019-03-24T00:22:03.348Z,100986.37
2019-03-24T00:24:33.260Z,100969.38
2019-03-24T00:27:03.353Z,100975.23
2019-03-24T00:29:33.395Z,100996.22
2019-03-24T00:32:03.386Z,101007.00
2019-03-24T00:34:52.167Z,100997.87
2019-03-24T00:40:16.370Z,101003.31
2019-03-24T00:42:46.288Z,100992.86
2019-03-24T00:45:16.447Z,100985.20
2019-03-24T00:47:50.676Z,100985.20
2019-03-24T00:50:20.600Z,100985.20
2019-03-24T00:52:50.540Z,100985.14
2019-03-24T00:55:20.557Z,100987.62
2019-03-24T01:00:45.631Z,100987.56
2019-03-24T01:03:40.507Z,100993.20
2019-03-24T01:06:10.459Z,100984.42
2019-03-24T01:08:40.719Z,100975.93
2019-03-24T01:11:29.558Z,100989.03
2019-03-24T01:16:54.320Z,100987.98
2019-03-24T01:19:24.252Z,100994.89
2019-03-24T01:21:54.190Z,101003.50
2019-03-24T01:24:46.170Z,101004.17
2019-03-24T01:30:12.827Z,101011.94
2019-03-24T01:32:43.103Z,101005.11
2019-03-24T01:35:52.053Z,101016.97
2019-03-24T01:41:44.588Z,101028.67
2019-03-24T01:47:09.171Z,101018.68
2019-03-24T01:49:39.119Z,101017.50
2019-03-24T01:52:09.043Z,101013.17
2019-03-24T01:54:57.985Z,101022.80
2019-03-24T01:57:28.265Z,101026.07
2019-03-24T02:03:09.460Z,100993.81
2019-03-24T02:05:40.222Z,101001.27
2019-03-24T02:08:10.192Z,101013.67
2019-03-24T02:10:43.194Z,101021.95
2019-03-24T02:13:13.115Z,101033.03
2019-03-24T02:15:43.145Z,101041.33
2019-03-24T02:20:55.097Z,101053.09
2019-03-24T02:23:26.125Z,101062.37
2019-03-24T02:25:56.047Z,101049.27
2019-03-24T02:28:25.974Z,101065.16
2019-03-24T02:30:55.897Z,101062.51
2019-03-24T02:33:46.973Z,101052.89
2019-03-24T02:36:19.312Z,101053.38
2019-03-24T02:38:49.570Z,101049.06
2019-03-24T02:41:19.476Z,101055.19
2019-03-24T02:43:49.458Z,101047.88
2019-03-24T02:46:24.714Z,101050.80
2019-03-24T02:51:26.693Z,101055.43
2019-03-24T02:53:56.723Z,101053.41
2019-03-24T02:56:26.643Z,101059.33
2019-03-24T02:58:56.606Z,101063.79
2019-03-24T03:01:26.545Z,101059.95
2019-03-24T03:03:56.479Z,101066.23
2019-03-24T03:06:26.486Z,101061.56
2019-03-24T03:09:15.166Z,101068.17
2019-03-24T03:11:45.282Z,101066.50
2019-03-24T03:14:15.265Z,101075.38
2019-03-24T03:16:45.307Z,101066.11
2019-03-24T03:24:42.274Z,101069.94
2019-03-24T03:27:12.328Z,101065.44
2019-03-24T03:29:42.274Z,101055.27
2019-03-24T03:32:12.198Z,101068.42
2019-03-24T03:34:42.245Z,101070.02
2019-03-24T03:37:31.025Z,101065.66
2019-03-24T03:40:01.214Z,101074.34
2019-03-24T03:42:33.429Z,101076.64
2019-03-24T03:45:03.394Z,101085.20
2019-03-24T03:47:33.357Z,101097.75
2019-03-24T03:50:03.338Z,101083.05
2019-03-24T03:52:33.386Z,101094.06
2019-03-24T03:55:03.427Z,101098.64
2019-03-24T03:57:33.376Z,101086.74
2019-03-24T04:00:03.414Z,101074.00
2019-03-24T04:05:10.191Z,101083.05
2019-03-24T04:10:34.530Z,101085.83
2019-03-24T04:13:04.463Z,101095.22
2019-03-24T04:15:53.527Z,101094.59
2019-03-24T04:18:42.336Z,101109.58
2019-03-24T04:21:12.440Z,101109.14
2019-03-24T04:23:46.197Z,101097.86
2019-03-24T04:26:29.033Z,101098.13
2019-03-24T04:28:59.194Z,101102.92
2019-03-24T04:31:31.985Z,101106.89
2019-03-24T04:34:01.960Z,101110.50
2019-03-24T04:36:31.925Z,101117.12
2019-03-24T04:39:02.080Z,101122.22
2019-03-24T04:41:32.010Z,101124.38
2019-03-24T04:44:01.995Z,101111.69
2019-03-24T04:46:31.996Z,101116.09
2019-03-24T04:49:02.004Z,101118.09
2019-03-24T04:51:47.443Z,101107.03
2019-03-24T04:54:05.831Z,101111.96
2019-03-24T04:56:35.991Z,101112.13
2019-03-24T04:59:13.880Z,101107.81
2019-03-24T05:01:43.869Z,101111.78
2019-03-24T05:04:13.822Z,101105.16
2019-03-24T05:06:44.368Z,101098.20
2019-03-24T05:12:47.890Z,101095.91
2019-03-24T05:15:38.245Z,101089.48
2019-03-24T05:20:43.426Z,101092.08
2019-03-24T05:23:13.581Z,101096.05
2019-03-24T05:25:43.810Z,101098.83
2019-03-24T05:28:25.175Z,101097.38
2019-03-24T05:31:03.758Z,101096.40
2019-03-24T05:33:35.463Z,101107.20
2019-03-24T05:36:05.539Z,101120.47
2019-03-24T05:38:54.175Z,101115.05
2019-03-24T05:41:24.129Z,101116.10
2019-03-24T05:43:54.066Z,101115.00
2019-03-24T05:46:24.032Z,101113.67
2019-03-24T05:48:53.966Z,101105.82
2019-03-24T05:51:26.430Z,101111.30
2019-03-24T05:53:56.377Z,101105.73
2019-03-24T05:56:26.396Z,101101.02
2019-03-24T05:58:56.323Z,101105.41
2019-03-24T06:04:02.373Z,101099.35
2019-03-24T06:09:26.933Z,101100.86
2019-03-24T06:12:15.733Z,101095.77
2019-03-24T06:14:56.545Z,101092.16
2019-03-24T06:17:26.505Z,101092.86
2019-03-24T06:22:45.479Z,101108.32
2019-03-24T06:25:15.397Z,101111.22
2019-03-24T06:27:45.808Z,101114.16
2019-03-24T06:30:16.096Z,101113.78
2019-03-24T06:32:46.151Z,101112.92
2019-03-24T06:35:16.219Z,101114.52
2019-03-24T06:37:46.463Z,101114.28
2019-03-24T06:40:35.249Z,101114.28
2019-03-24T06:43:16.308Z,101097.23
2019-03-24T06:45:46.517Z,101112.52
2019-03-24T06:48:17.122Z,101108.67
2019-03-24T06:50:47.145Z,101116.72
2019-03-24T06:53:17.066Z,101114.61
2019-03-24T06:55:47.081Z,101113.81
2019-03-24T06:58:17.141Z,101116.38
2019-03-24T07:00:53.863Z,101110.98
2019-03-24T07:03:23.966Z,101101.30
2019-03-24T07:05:53.932Z,101112.69
2019-03-24T07:08:23.914Z,101106.45
2019-03-24T07:10:53.877Z,101108.02
2019-03-24T07:13:23.785Z,101108.46
2019-03-24T07:16:04.278Z,101111.19
2019-03-24T07:18:30.798Z,101101.48
2019-03-24T07:21:01.991Z,101113.38
2019-03-24T07:23:31.945Z,101111.63
2019-03-24T07:26:04.329Z,101110.20
2019-03-24T07:28:34.266Z,101109.42
2019-03-24T07:33:50.319Z,101111.97
2019-03-24T07:39:05.771Z,101113.09
2019-03-24T07:44:48.413Z,101102.85
2019-03-24T07:47:18.364Z,101113.55
2019-03-24T07:49:48.322Z,101112.41
2019-03-24T07:54:54.258Z,101108.31
2019-03-24T08:06:04.693Z,101106.34
2019-03-24T08:08:46.134Z,101102.20
2019-03-24T08:11:16.333Z,101093.39
2019-03-24T08:13:53.824Z,101096.70
2019-03-24T08:16:18.088Z,101089.38
2019-03-24T08:18:58.648Z,101090.36
2019-03-24T08:21:28.784Z,101088.08
2019-03-24T08:23:58.811Z,101087.45
2019-03-24T08:26:29.215Z,101090.17
2019-03-24T08:28:59.311Z,101087.26
2019-03-24T08:31:29.313Z,101078.47
2019-03-24T08:33:59.805Z,101085.16
2019-03-24T08:36:48.495Z,101076.70
2019-03-24T08:39:18.444Z,101074.73
2019-03-24T08:41:48.430Z,101078.22
2019-03-24T08:44:18.405Z,101065.93
2019-03-24T08:46:50.760Z,101072.76
2019-03-24T08:49:20.719Z,101079.42
2019-03-24T08:51:51.302Z,101076.76
2019-03-24T08:54:22.342Z,101073.12
2019-03-24T08:59:47.019Z,101069.12
2019-03-24T09:02:21.645Z,101069.66
2019-03-24T09:04:51.592Z,101061.83
2019-03-24T09:07:21.886Z,101043.36
2019-03-24T09:09:51.858Z,101040.04
2019-03-24T09:12:21.916Z,101029.84
2019-03-24T09:14:51.926Z,101031.85
2019-03-24T09:17:21.856Z,101024.83
2019-03-24T09:20:02.295Z,101023.96
2019-03-24T09:22:32.311Z,101010.47
2019-03-24T09:25:02.258Z,101008.30
2019-03-24T09:27:32.250Z,101011.79
2019-03-24T09:30:02.190Z,101004.95
2019-03-24T09:32:32.095Z,101003.42
2019-03-24T09:35:02.113Z,101002.08
2019-03-24T09:37:32.025Z,101006.23
2019-03-24T09:40:02.022Z,100987.35
2019-03-24T09:42:32.025Z,100970.33
2019-03-24T09:45:02.006Z,100986.30
2019-03-24T09:47:31.932Z,100978.94
2019-03-24T09:50:01.903Z,100970.88
2019-03-24T09:52:31.894Z,100975.52
2019-03-24T09:55:01.887Z,100963.13
2019-03-24T10:00:46.615Z,100962.45
2019-03-24T10:03:16.674Z,100981.27
2019-03-24T10:05:46.854Z,100957.19
2019-03-24T10:08:16.895Z,100941.56
2019-03-24T10:10:46.931Z,100953.74
2019-03-24T10:13:19.434Z,100944.23
2019-03-24T10:15:49.346Z,100934.56
2019-03-24T10:18:19.304Z,100940.15
2019-03-24T10:23:33.068Z,100931.42
2019-03-24T10:28:52.295Z,100915.66
2019-03-24T10:31:22.333Z,100909.89
2019-03-24T10:33:52.245Z,100897.87
2019-03-24T10:36:43.143Z,100896.65
2019-03-24T10:39:13.220Z,100901.27
2019-03-24T10:41:43.197Z,100892.56
2019-03-24T10:44:13.248Z,100894.73
2019-03-24T10:46:43.218Z,100890.22
2019-03-24T10:49:13.134Z,100883.68
2019-03-24T10:51:43.087Z,100879.60
2019-03-24T10:54:12.999Z,100879.34
2019-03-24T10:57:01.930Z,100874.16
2019-03-24T10:59:31.891Z,100877.08
2019-03-24T11:02:01.869Z,100878.92
2019-03-24T11:04:32.079Z,100870.25
2019-03-24T11:07:02.038Z,100860.02
2019-03-24T11:09:31.962Z,100857.53
2019-03-24T11:12:02.094Z,100860.91
2019-03-24T11:14:32.006Z,100854.63
2019-03-24T11:17:01.940Z,100843.23
2019-03-24T11:19:35.901Z,100847.11
2019-03-24T11:22:17.900Z,100843.37
2019-03-24T11:25:08.070Z,100833.30
2019-03-24T11:27:38.916Z,100829.90
2019-03-24T11:30:11.577Z,100810.15
2019-03-24T11:32:43.367Z,100816.14
2019-03-24T11:35:33.461Z,100813.45
2019-03-24T11:38:03.524Z,100811.55
2019-03-24T11:40:33.704Z,100814.01
2019-03-24T11:43:03.722Z,100803.36
2019-03-24T11:45:36.219Z,100809.22
2019-03-24T11:48:06.173Z,100798.01
2019-03-24T11:50:36.171Z,100808.81
2019-03-24T11:53:06.327Z,100792.48
2019-03-24T11:55:55.096Z,100786.88
2019-03-24T11:58:25.236Z,100790.89
2019-03-24T12:00:55.283Z,100779.42
2019-03-24T12:03:25.566Z,100778.34
2019-03-24T12:05:55.640Z,100759.50
2019-03-24T12:08:25.745Z,100762.09
2019-03-24T12:10:55.685Z,100762.75
2019-03-24T12:13:25.861Z,100752.75
2019-03-24T12:15:55.836Z,100744.97
2019-03-24T12:18:25.947Z,100742.45
2019-03-24T12:20:56.039Z,100732.20
2019-03-24T12:23:37.251Z,100727.44
2019-03-24T12:26:07.387Z,100720.74
2019-03-24T12:28:37.451Z,100711.81
2019-03-24T12:31:07.403Z,100707.16
2019-03-24T12:33:40.991Z,100697.35
2019-03-24T12:36:10.888Z,100706.23
2019-03-24T12:38:40.869Z,100694.80
2019-03-24T12:43:46.704Z,100693.73
2019-03-24T12:49:02.960Z,100693.21
2019-03-24T12:51:32.883Z,100688.98
2019-03-24T12:54:02.837Z,100689.52
2019-03-24T12:59:08.446Z,100690.45
2019-03-24T13:01:57.419Z,100679.94
2019-03-24T13:07:41.956Z,100670.67
2019-03-24T13:13:21.310Z,100659.16
2019-03-24T13:15:51.265Z,100653.95
2019-03-24T13:18:21.209Z,100654.13
2019-03-24T13:20:51.353Z,100652.29
2019-03-24T13:23:21.279Z,100639.41
2019-03-24T13:25:53.395Z,100636.60
2019-03-24T13:28:42.045Z,100636.34
2019-03-24T13:36:48.903Z,100618.67
2019-03-24T13:39:29.633Z,100613.91
2019-03-24T13:42:01.045Z,100605.99
2019-03-24T13:44:31.087Z,100605.20
2019-03-24T13:47:01.324Z,100603.39
2019-03-24T13:49:31.287Z,100599.14
2019-03-24T13:52:01.506Z,100588.70
2019-03-24T14:02:42.720Z,100599.63
2019-03-24T14:05:01.379Z,100584.72
2019-03-24T14:07:33.327Z,100587.27
2019-03-24T14:10:03.489Z,100587.31
2019-03-24T14:12:33.430Z,100580.34
2019-03-24T14:17:54.595Z,100596.39
2019-03-24T14:23:19.167Z,100588.56
2019-03-24T14:28:48.662Z,100584.05
2019-03-24T14:31:18.734Z,100573.74
2019-03-24T14:33:48.672Z,100577.42
2019-03-24T14:36:18.640Z,100578.62
2019-03-24T14:39:07.597Z,100568.63
2019-03-24T14:41:37.836Z,100566.28
2019-03-24T14:44:07.841Z,100554.22
2019-03-24T14:46:37.824Z,100534.01
2019-03-24T14:49:07.976Z,100546.39
2019-03-24T14:51:37.884Z,100537.38
2019-03-24T14:54:07.903Z,100530.52
2019-03-24T14:56:37.921Z,100531.39
2019-03-24T14:59:07.972Z,100530.59
2019-03-24T15:01:38.364Z,100529.80
2019-03-24T15:04:08.311Z,100519.93
2019-03-24T15:06:38.264Z,100519.48
2019-03-24T15:09:08.908Z,100518.23
2019-03-24T15:11:40.735Z,100510.47
2019-03-24T15:14:10.773Z,100503.98
2019-03-24T15:16:49.914Z,100490.89
2019-03-24T15:22:04.646Z,100484.35
2019-03-24T15:24:34.585Z,100484.29
2019-03-24T15:27:04.684Z,100486.14
2019-03-24T15:29:34.727Z,100480.86
2019-03-24T15:32:16.675Z,100481.27
2019-03-24T15:35:05.689Z,100485.95
2019-03-24T15:43:07.808Z,100480.52
2019-03-24T15:45:48.677Z,100482.69
2019-03-24T15:48:18.674Z,100485.38
2019-03-24T15:50:48.632Z,100474.52
2019-03-24T15:53:37.423Z,100461.41
2019-03-24T15:56:10.435Z,100468.91
2019-03-24T16:01:16.179Z,100468.07
2019-03-24T16:03:46.282Z,100461.17
2019-03-24T16:06:36.502Z,100450.81
2019-03-24T16:09:08.326Z,100449.33
2019-03-24T16:11:38.295Z,100443.65
2019-03-24T16:14:08.235Z,100438.44
2019-03-24T16:16:38.189Z,100437.83
2019-03-24T16:19:08.106Z,100429.34
2019-03-24T16:21:56.689Z,100419.53
2019-03-24T16:24:26.843Z,100413.70
2019-03-24T16:26:56.749Z,100402.45
2019-03-24T16:29:26.857Z,100399.59
2019-03-24T16:31:56.803Z,100383.59
2019-03-24T16:34:26.727Z,100383.03
2019-03-24T16:36:59.514Z,100379.77
2019-03-24T16:39:29.421Z,100372.79
2019-03-24T16:41:59.371Z,100364.79
2019-03-24T16:44:30.021Z,100369.16
2019-03-24T16:47:01.535Z,100356.66
2019-03-24T16:49:31.566Z,100368.55
2019-03-24T16:52:01.800Z,100361.02
2019-03-24T16:54:31.831Z,100350.55
2019-03-24T16:57:02.804Z,100353.55
2019-03-24T16:59:32.760Z,100351.67
2019-03-24T17:02:02.719Z,100348.81
2019-03-24T17:04:32.631Z,100351.57
2019-03-24T17:07:03.340Z,100347.31
2019-03-24T17:09:33.267Z,100339.92
2019-03-24T17:12:03.380Z,100343.86
2019-03-24T17:14:33.379Z,100344.41
2019-03-24T17:17:07.011Z,100340.51
2019-03-24T17:19:37.127Z,100337.22
2019-03-24T17:22:25.591Z,100329.47
2019-03-24T17:24:42.706Z,100325.86
2019-03-24T17:30:01.908Z,100323.97
2019-03-24T17:33:10.862Z,100313.24
2019-03-24T17:35:52.135Z,100317.63
2019-03-24T17:41:35.756Z,100313.17
2019-03-24T17:44:06.357Z,100304.59
2019-03-24T17:46:36.445Z,100309.27
2019-03-24T17:49:06.678Z,100300.49
2019-03-24T17:51:36.613Z,100298.71
2019-03-24T17:54:07.994Z,100297.23
2019-03-24T17:56:40.922Z,100294.26
2019-03-24T17:59:11.292Z,100295.41
2019-03-24T18:04:30.340Z,100271.41
2019-03-24T18:07:00.303Z,100270.44
2019-03-24T18:09:30.776Z,100269.78
2019-03-24T18:12:00.815Z,100272.95
2019-03-24T18:14:31.194Z,100275.77
2019-03-24T18:17:01.094Z,100270.47
2019-03-24T18:19:31.316Z,100273.97
2019-03-24T18:22:11.226Z,100266.38
2019-03-24T18:24:33.985Z,100272.52
2019-03-24T18:27:04.047Z,100269.38
2019-03-24T18:29:34.061Z,100277.02
2019-03-24T18:32:04.079Z,100265.95
2019-03-24T18:34:34.121Z,100267.45
2019-03-24T18:39:59.083Z,100262.91
2019-03-24T18:42:29.170Z,100262.91
2019-03-24T18:44:59.114Z,100251.52
2019-03-24T18:47:32.326Z,100254.83
2019-03-24T18:50:21.019Z,100244.13
2019-03-24T18:52:50.982Z,100244.13
2019-03-24T18:55:28.724Z,100243.30
2019-03-24T18:57:58.882Z,100240.18
2019-03-24T19:00:28.920Z,100234.21
2019-03-24T19:02:58.973Z,100232.22
2019-03-24T19:05:29.263Z,100219.30
2019-03-24T19:07:59.191Z,100220.66
2019-03-24T19:10:29.213Z,100224.47
2019-03-24T19:12:59.287Z,100228.43
2019-03-24T19:15:30.426Z,100229.25
2019-03-24T19:18:00.620Z,100239.38
2019-03-24T19:20:50.950Z,100231.10
2019-03-24T19:23:20.904Z,100227.95
2019-03-24T19:25:50.850Z,100224.80
2019-03-24T19:28:39.746Z,100214.39
2019-03-24T19:37:22.266Z,100219.84
2019-03-24T19:40:04.123Z,100222.81
2019-03-24T19:42:34.124Z,100211.25
2019-03-24T19:45:04.225Z,100207.27
2019-03-24T19:47:34.140Z,100201.64
2019-03-24T19:50:04.145Z,100196.67
2019-03-24T19:52:44.134Z,100184.09
2019-03-24T19:55:06.722Z,100186.25
2019-03-24T20:00:22.419Z,100185.91
2019-03-24T20:02:53.357Z,100180.95
2019-03-24T20:05:38.183Z,100178.14
2019-03-24T20:07:55.786Z,100165.90
2019-03-24T20:10:37.048Z,100162.09
2019-03-24T20:13:07.197Z,100154.84
2019-03-24T20:15:39.217Z,100157.98
2019-03-24T20:18:09.148Z,100166.06
2019-03-24T20:20:39.263Z,100161.43
2019-03-24T20:23:09.212Z,100153.82
2019-03-24T20:25:58.053Z,100148.86
2019-03-24T20:34:23.291Z,100122.88
2019-03-24T20:39:36.962Z,100121.73
2019-03-24T20:42:07.134Z,100115.45
2019-03-24T20:44:39.144Z,100114.45
2019-03-24T20:47:08.437Z,100119.27
2019-03-24T20:49:38.489Z,100115.77
2019-03-24T20:54:57.379Z,100107.66
2019-03-24T20:57:27.292Z,100105.15
2019-03-24T20:59:57.222Z,100103.99
2019-03-24T21:02:27.276Z,100097.05
2019-03-24T21:04:59.135Z,100081.65
2019-03-24T21:07:47.980Z,100060.43
2019-03-24T21:10:18.021Z,100060.43
2019-03-24T21:12:48.068Z,100062.24
2019-03-24T21:15:18.200Z,100058.59
2019-03-24T21:17:50.221Z,100061.05
2019-03-24T21:20:20.132Z,100062.41
2019-03-24T21:22:50.206Z,100056.78
2019-03-24T21:25:20.113Z,100056.98
2019-03-24T21:27:50.027Z,100050.86
2019-03-24T21:30:59.175Z,100047.73
2019-03-24T21:36:20.180Z,100054.37
2019-03-24T21:38:50.110Z,100045.80
2019-03-24T21:41:20.079Z,100044.48
2019-03-24T21:43:50.052Z,100038.56
2019-03-24T21:46:20.011Z,100045.83
2019-03-24T21:48:49.932Z,100042.69
2019-03-24T21:51:19.903Z,100044.50
2019-03-24T21:53:49.965Z,100050.95
2019-03-24T21:56:19.922Z,100041.53
2019-03-24T21:58:50.101Z,100047.81
2019-03-24T22:01:20.121Z,100043.98
2019-03-24T22:04:04.701Z,100042.33
2019-03-24T22:09:42.681Z,100037.34
2019-03-24T22:12:13.049Z,100030.72
2019-03-24T22:14:42.963Z,100027.70
2019-03-24T22:17:13.251Z,100029.97
2019-03-24T22:19:43.177Z,100026.99
2019-03-24T22:22:15.787Z,100014.41
2019-03-24T22:24:45.923Z,100024.95
2019-03-24T22:27:18.735Z,100025.77
2019-03-24T22:29:48.828Z,100026.27
2019-03-24T22:34:56.964Z,100009.48
2019-03-24T22:37:38.810Z,100009.48
2019-03-24T22:43:04.537Z,100001.19
2019-03-24T22:45:34.438Z,99991.91
2019-03-24T22:48:04.471Z,99996.00
2019-03-24T22:50:34.440Z,99982.41
2019-03-24T22:53:07.152Z,99982.41
2019-03-24T22:55:39.132Z,99959.45
2019-03-24T22:58:09.132Z,99970.16
2019-03-24T23:00:57.962Z,99965.68
2019-03-24T23:03:28.011Z,99965.68
2019-03-24T23:05:57.936Z,99971.80
2019-03-24T23:08:27.843Z,99962.86
2019-03-24T23:10:57.752Z,99957.21
2019-03-24T23:13:27.674Z,99945.78
2019-03-24T23:15:57.631Z,99931.75
2019-03-24T23:18:27.560Z,99944.88
2019-03-24T23:20:57.500Z,99943.91
2019-03-24T23:23:27.601Z,99948.09
2019-03-24T23:25:57.512Z,99936.53
2019-03-24T23:28:27.490Z,99936.20
2019-03-24T23:30:57.395Z,99946.95
2019-03-24T23:33:27.297Z,99947.73
2019-03-24T23:35:57.258Z,99945.06
2019-03-24T23:38:38.323Z,99949.34
2019-03-24T23:41:09.343Z,99947.64
2019-03-24T23:43:39.347Z,99936.55
2019-03-24T23:46:09.331Z,99941.81
2019-03-24T23:51:28.222Z,99924.42
2019-03-24T23:53:58.223Z,99935.94
2019-03-24T23:56:49.215Z,99931.94
2019-03-24T23:59:19.438Z,99927.48
